sensor_id;sensor_type;location;lat;lon;timestamp;temperature;humidity
21627;DHT22;10975;47.872;12.972;2023-02-19T00:01:13;12.10;99.90
21627;DHT22;10975;47.872;12.972;2023-02-19T00:06:12;12.10;99.90
21627;DHT22;10975;47.872;12.972;2023-02-19T00:08:39;12.00;99.90
21627;DHT22;10975;47.872;12.972;2023-02-19T00:11:07;12.10;99.90
21627;DHT22;10975;47.872;12.972;2023-02-19T00:13:39;12.10;99.90
21627;DHT22;10975;47.872;12.972;2023-02-19T00:16:10;12.10;99.90
21627;DHT22;10975;47.872;12.972;2023-02-19T00:18:37;12.00;99.90
21627;DHT22;10975;47.872;12.972;2023-02-19T00:21:04;11.90;99.90
21627;DHT22;10975;47.872;12.972;2023-02-19T00:23:31;11.90;99.90
21627;DHT22;10975;47.872;12.972;2023-02-19T00:26:08;11.90;99.90
21627;DHT22;10975;47.872;12.972;2023-02-19T00:28:44;11.80;99.90
21627;DHT22;10975;47.872;12.972;2023-02-19T00:31:22;11.70;99.90
21627;DHT22;10975;47.872;12.972;2023-02-19T00:33:50;11.80;99.90
21627;DHT22;10975;47.872;12.972;2023-02-19T00:36:17;11.70;99.90
21627;DHT22;10975;47.872;12.972;2023-02-19T00:38:44;11.70;99.90
21627;DHT22;10975;47.872;12.972;2023-02-19T00:41:11;11.80;99.90
21627;DHT22;10975;47.872;12.972;2023-02-19T00:46:11;11.70;99.90
21627;DHT22;10975;47.872;12.972;2023-02-19T00:48:38;11.80;99.90
21627;DHT22;10975;47.872;12.972;2023-02-19T00:51:04;11.90;99.90
21627;DHT22;10975;47.872;12.972;2023-02-19T00:53:31;11.90;99.90
21627;DHT22;10975;47.872;12.972;2023-02-19T00:55:58;11.90;99.90
21627;DHT22;10975;47.872;12.972;2023-02-19T00:58:25;11.90;99.90
21627;DHT22;10975;47.872;12.972;2023-02-19T01:00:51;11.80;99.90
21627;DHT22;10975;47.872;12.972;2023-02-19T01:03:18;11.80;99.90
21627;DHT22;10975;47.872;12.972;2023-02-19T01:05:45;11.80;99.90
21627;DHT22;10975;47.872;12.972;2023-02-19T01:08:11;11.80;99.90
21627;DHT22;10975;47.872;12.972;2023-02-19T01:10:38;11.80;99.90
21627;DHT22;10975;47.872;12.972;2023-02-19T01:13:04;11.70;99.90
21627;DHT22;10975;47.872;12.972;2023-02-19T01:15:32;11.60;99.90
21627;DHT22;10975;47.872;12.972;2023-02-19T01:17:58;11.60;99.90
21627;DHT22;10975;47.872;12.972;2023-02-19T01:20:25;11.50;99.90
21627;DHT22;10975;47.872;12.972;2023-02-19T01:22:52;11.70;99.90
21627;DHT22;10975;47.872;12.972;2023-02-19T01:25:19;11.70;99.90
21627;DHT22;10975;47.872;12.972;2023-02-19T01:27:45;11.70;99.90
21627;DHT22;10975;47.872;12.972;2023-02-19T01:30:12;11.60;99.90
21627;DHT22;10975;47.872;12.972;2023-02-19T01:32:39;11.80;99.90
21627;DHT22;10975;47.872;12.972;2023-02-19T01:35:05;11.80;99.90
21627;DHT22;10975;47.872;12.972;2023-02-19T01:37:32;11.80;99.90
21627;DHT22;10975;47.872;12.972;2023-02-19T01:39:59;11.70;99.90
21627;DHT22;10975;47.872;12.972;2023-02-19T01:42:26;11.70;99.90
21627;DHT22;10975;47.872;12.972;2023-02-19T01:45:12;11.70;99.90
21627;DHT22;10975;47.872;12.972;2023-02-19T01:47:41;11.70;99.90
21627;DHT22;10975;47.872;12.972;2023-02-19T01:50:07;11.80;99.90
21627;DHT22;10975;47.872;12.972;2023-02-19T01:52:34;11.70;99.90
21627;DHT22;10975;47.872;12.972;2023-02-19T01:55:02;11.70;99.90
21627;DHT22;10975;47.872;12.972;2023-02-19T01:57:32;11.80;99.90
21627;DHT22;10975;47.872;12.972;2023-02-19T02:00:05;11.80;99.90
21627;DHT22;10975;47.872;12.972;2023-02-19T02:02:32;11.80;99.90
21627;DHT22;10975;47.872;12.972;2023-02-19T02:04:58;11.80;99.90
21627;DHT22;10975;47.872;12.972;2023-02-19T02:07:26;11.80;99.90
21627;DHT22;10975;47.872;12.972;2023-02-19T02:10:11;11.80;99.90
21627;DHT22;10975;47.872;12.972;2023-02-19T02:12:47;11.90;99.90
21627;DHT22;10975;47.872;12.972;2023-02-19T02:15:15;11.90;99.90
21627;DHT22;10975;47.872;12.972;2023-02-19T02:30:46;11.90;99.90
21627;DHT22;10975;47.872;12.972;2023-02-19T02:36:00;11.90;99.90
21627;DHT22;10975;47.872;12.972;2023-02-19T02:38:29;11.90;99.90
21627;DHT22;10975;47.872;12.972;2023-02-19T02:40:57;11.80;99.90
21627;DHT22;10975;47.872;12.972;2023-02-19T02:43:24;11.90;99.90
21627;DHT22;10975;47.872;12.972;2023-02-19T02:45:51;12.00;99.90
21627;DHT22;10975;47.872;12.972;2023-02-19T02:53:22;12.00;99.90
21627;DHT22;10975;47.872;12.972;2023-02-19T02:56:09;12.00;99.90
21627;DHT22;10975;47.872;12.972;2023-02-19T02:58:36;12.00;99.90
21627;DHT22;10975;47.872;12.972;2023-02-19T03:01:07;12.10;99.90
21627;DHT22;10975;47.872;12.972;2023-02-19T03:03:55;12.00;99.90
21627;DHT22;10975;47.872;12.972;2023-02-19T03:06:23;12.00;99.90
21627;DHT22;10975;47.872;12.972;2023-02-19T03:11:20;12.00;99.90
21627;DHT22;10975;47.872;12.972;2023-02-19T03:14:16;12.10;99.90
21627;DHT22;10975;47.872;12.972;2023-02-19T03:17:05;12.00;99.90
21627;DHT22;10975;47.872;12.972;2023-02-19T03:19:53;11.80;99.90
21627;DHT22;10975;47.872;12.972;2023-02-19T03:22:32;12.00;99.90
21627;DHT22;10975;47.872;12.972;2023-02-19T03:25:01;11.90;99.90
21627;DHT22;10975;47.872;12.972;2023-02-19T03:27:49;11.80;99.90
21627;DHT22;10975;47.872;12.972;2023-02-19T03:30:18;11.70;99.90
21627;DHT22;10975;47.872;12.972;2023-02-19T03:32:47;11.70;99.90
21627;DHT22;10975;47.872;12.972;2023-02-19T03:35:19;12.00;99.90
21627;DHT22;10975;47.872;12.972;2023-02-19T03:37:52;11.90;99.90
21627;DHT22;10975;47.872;12.972;2023-02-19T03:40:20;11.90;99.90
21627;DHT22;10975;47.872;12.972;2023-02-19T03:42:53;11.80;99.90
21627;DHT22;10975;47.872;12.972;2023-02-19T03:50:21;11.80;99.90
21627;DHT22;10975;47.872;12.972;2023-02-19T03:52:55;11.70;99.90
21627;DHT22;10975;47.872;12.972;2023-02-19T03:55:30;12.00;99.90
21627;DHT22;10975;47.872;12.972;2023-02-19T03:58:13;11.80;99.90
21627;DHT22;10975;47.872;12.972;2023-02-19T04:00:44;11.90;99.90
21627;DHT22;10975;47.872;12.972;2023-02-19T04:03:17;11.90;99.90
21627;DHT22;10975;47.872;12.972;2023-02-19T04:05:47;11.80;99.90
21627;DHT22;10975;47.872;12.972;2023-02-19T04:08:15;11.80;99.90
21627;DHT22;10975;47.872;12.972;2023-02-19T04:10:44;11.90;99.90
21627;DHT22;10975;47.872;12.972;2023-02-19T04:13:45;11.90;99.90
21627;DHT22;10975;47.872;12.972;2023-02-19T04:16:06;11.90;99.90
21627;DHT22;10975;47.872;12.972;2023-02-19T04:18:35;11.90;99.90
21627;DHT22;10975;47.872;12.972;2023-02-19T04:21:03;12.20;99.90
21627;DHT22;10975;47.872;12.972;2023-02-19T04:23:32;12.20;99.90
21627;DHT22;10975;47.872;12.972;2023-02-19T04:26:01;12.10;99.90
21627;DHT22;10975;47.872;12.972;2023-02-19T04:28:28;12.20;99.90
21627;DHT22;10975;47.872;12.972;2023-02-19T04:30:55;12.00;99.90
21627;DHT22;10975;47.872;12.972;2023-02-19T04:33:22;12.10;99.90
21627;DHT22;10975;47.872;12.972;2023-02-19T04:35:48;11.90;99.90
21627;DHT22;10975;47.872;12.972;2023-02-19T04:38:15;11.80;99.90
21627;DHT22;10975;47.872;12.972;2023-02-19T04:40:42;11.80;99.90
21627;DHT22;10975;47.872;12.972;2023-02-19T04:43:08;11.70;99.90
21627;DHT22;10975;47.872;12.972;2023-02-19T04:45:38;11.80;99.90
21627;DHT22;10975;47.872;12.972;2023-02-19T04:48:05;11.60;99.90
21627;DHT22;10975;47.872;12.972;2023-02-19T04:50:31;11.70;99.90
21627;DHT22;10975;47.872;12.972;2023-02-19T04:52:58;11.70;99.90
21627;DHT22;10975;47.872;12.972;2023-02-19T04:55:25;11.60;99.90
21627;DHT22;10975;47.872;12.972;2023-02-19T04:57:51;11.20;99.90
21627;DHT22;10975;47.872;12.972;2023-02-19T05:00:18;11.00;99.90
21627;DHT22;10975;47.872;12.972;2023-02-19T05:02:47;10.80;99.90
21627;DHT22;10975;47.872;12.972;2023-02-19T05:05:14;10.50;99.90
21627;DHT22;10975;47.872;12.972;2023-02-19T05:07:41;10.60;99.90
21627;DHT22;10975;47.872;12.972;2023-02-19T05:10:07;10.50;99.90
21627;DHT22;10975;47.872;12.972;2023-02-19T05:12:34;10.50;99.90
21627;DHT22;10975;47.872;12.972;2023-02-19T05:15:00;10.50;99.90
21627;DHT22;10975;47.872;12.972;2023-02-19T05:17:27;10.50;99.90
21627;DHT22;10975;47.872;12.972;2023-02-19T05:19:54;10.50;99.90
21627;DHT22;10975;47.872;12.972;2023-02-19T05:22:20;10.40;99.90
21627;DHT22;10975;47.872;12.972;2023-02-19T05:24:47;10.40;99.90
21627;DHT22;10975;47.872;12.972;2023-02-19T05:27:14;10.20;99.90
21627;DHT22;10975;47.872;12.972;2023-02-19T05:29:40;10.10;99.90
21627;DHT22;10975;47.872;12.972;2023-02-19T05:32:07;10.20;99.90
21627;DHT22;10975;47.872;12.972;2023-02-19T05:34:34;10.30;99.90
21627;DHT22;10975;47.872;12.972;2023-02-19T05:37:00;10.30;99.90
21627;DHT22;10975;47.872;12.972;2023-02-19T05:39:27;10.20;99.90
21627;DHT22;10975;47.872;12.972;2023-02-19T05:41:54;10.20;99.90
21627;DHT22;10975;47.872;12.972;2023-02-19T05:44:20;10.40;99.90
21627;DHT22;10975;47.872;12.972;2023-02-19T05:46:47;10.30;99.90
21627;DHT22;10975;47.872;12.972;2023-02-19T05:49:14;10.30;99.90
21627;DHT22;10975;47.872;12.972;2023-02-19T05:51:40;10.30;99.90
21627;DHT22;10975;47.872;12.972;2023-02-19T05:54:07;10.40;99.90
21627;DHT22;10975;47.872;12.972;2023-02-19T05:56:34;10.40;99.90
21627;DHT22;10975;47.872;12.972;2023-02-19T05:59:03;10.50;99.90
21627;DHT22;10975;47.872;12.972;2023-02-19T06:01:32;10.30;99.90
21627;DHT22;10975;47.872;12.972;2023-02-19T06:03:59;10.30;99.90
21627;DHT22;10975;47.872;12.972;2023-02-19T06:06:26;10.20;99.90
21627;DHT22;10975;47.872;12.972;2023-02-19T06:08:53;10.10;99.90
21627;DHT22;10975;47.872;12.972;2023-02-19T06:11:19;10.40;99.90
21627;DHT22;10975;47.872;12.972;2023-02-19T06:13:46;10.10;99.90
21627;DHT22;10975;47.872;12.972;2023-02-19T06:16:14;10.10;99.90
21627;DHT22;10975;47.872;12.972;2023-02-19T06:18:43;9.90;99.90
21627;DHT22;10975;47.872;12.972;2023-02-19T06:21:10;10.10;99.90
21627;DHT22;10975;47.872;12.972;2023-02-19T06:23:38;10.00;99.90
21627;DHT22;10975;47.872;12.972;2023-02-19T06:28:31;10.10;99.90
21627;DHT22;10975;47.872;12.972;2023-02-19T06:30:58;10.20;99.90
21627;DHT22;10975;47.872;12.972;2023-02-19T06:33:25;10.30;99.90
21627;DHT22;10975;47.872;12.972;2023-02-19T06:35:52;10.20;99.90
21627;DHT22;10975;47.872;12.972;2023-02-19T06:38:21;10.40;99.90
21627;DHT22;10975;47.872;12.972;2023-02-19T06:40:48;10.30;99.90
21627;DHT22;10975;47.872;12.972;2023-02-19T06:43:14;10.50;99.90
21627;DHT22;10975;47.872;12.972;2023-02-19T06:45:41;10.30;99.90
21627;DHT22;10975;47.872;12.972;2023-02-19T06:48:08;10.20;99.90
21627;DHT22;10975;47.872;12.972;2023-02-19T06:50:34;10.30;99.90
21627;DHT22;10975;47.872;12.972;2023-02-19T06:53:01;10.20;99.90
21627;DHT22;10975;47.872;12.972;2023-02-19T06:55:28;10.10;99.90
21627;DHT22;10975;47.872;12.972;2023-02-19T06:57:54;10.10;99.90
21627;DHT22;10975;47.872;12.972;2023-02-19T07:00:21;10.10;99.90
21627;DHT22;10975;47.872;12.972;2023-02-19T07:02:48;10.10;99.90
21627;DHT22;10975;47.872;12.972;2023-02-19T07:05:15;10.00;99.90
21627;DHT22;10975;47.872;12.972;2023-02-19T07:07:44;10.20;99.90
21627;DHT22;10975;47.872;12.972;2023-02-19T07:10:10;9.90;99.90
21627;DHT22;10975;47.872;12.972;2023-02-19T07:12:37;9.90;99.90
21627;DHT22;10975;47.872;12.972;2023-02-19T07:15:04;10.10;99.90
21627;DHT22;10975;47.872;12.972;2023-02-19T07:17:30;10.10;99.90
21627;DHT22;10975;47.872;12.972;2023-02-19T07:19:57;10.00;99.90
21627;DHT22;10975;47.872;12.972;2023-02-19T07:22:24;9.90;99.90
21627;DHT22;10975;47.872;12.972;2023-02-19T07:24:50;9.90;99.90
21627;DHT22;10975;47.872;12.972;2023-02-19T07:27:17;9.90;99.90
21627;DHT22;10975;47.872;12.972;2023-02-19T07:29:44;9.80;99.90
21627;DHT22;10975;47.872;12.972;2023-02-19T07:32:11;9.80;99.90
21627;DHT22;10975;47.872;12.972;2023-02-19T07:34:37;9.80;99.90
21627;DHT22;10975;47.872;12.972;2023-02-19T07:37:04;9.90;99.90
21627;DHT22;10975;47.872;12.972;2023-02-19T07:39:31;9.90;99.90
21627;DHT22;10975;47.872;12.972;2023-02-19T07:41:57;9.90;99.90
21627;DHT22;10975;47.872;12.972;2023-02-19T07:44:24;10.00;99.90
21627;DHT22;10975;47.872;12.972;2023-02-19T07:46:50;10.00;99.90
21627;DHT22;10975;47.872;12.972;2023-02-19T07:49:17;10.10;99.90
21627;DHT22;10975;47.872;12.972;2023-02-19T07:51:44;10.10;99.90
21627;DHT22;10975;47.872;12.972;2023-02-19T07:54:11;10.10;99.90
21627;DHT22;10975;47.872;12.972;2023-02-19T07:56:38;10.20;99.90
21627;DHT22;10975;47.872;12.972;2023-02-19T07:59:04;10.20;99.90
21627;DHT22;10975;47.872;12.972;2023-02-19T08:01:31;10.00;99.90
21627;DHT22;10975;47.872;12.972;2023-02-19T08:04:16;9.90;99.90
21627;DHT22;10975;47.872;12.972;2023-02-19T08:06:43;9.90;99.90
21627;DHT22;10975;47.872;12.972;2023-02-19T08:09:10;10.10;99.90
21627;DHT22;10975;47.872;12.972;2023-02-19T08:11:36;10.00;99.90
21627;DHT22;10975;47.872;12.972;2023-02-19T08:14:25;10.20;99.90
21627;DHT22;10975;47.872;12.972;2023-02-19T08:16:52;10.10;99.90
21627;DHT22;10975;47.872;12.972;2023-02-19T08:19:19;10.10;99.90
21627;DHT22;10975;47.872;12.972;2023-02-19T08:21:46;10.20;99.90
21627;DHT22;10975;47.872;12.972;2023-02-19T08:24:12;10.20;99.90
21627;DHT22;10975;47.872;12.972;2023-02-19T08:26:39;10.30;99.90
21627;DHT22;10975;47.872;12.972;2023-02-19T08:29:06;10.40;99.90
21627;DHT22;10975;47.872;12.972;2023-02-19T08:31:33;10.60;99.90
21627;DHT22;10975;47.872;12.972;2023-02-19T08:34:00;10.80;99.90
21627;DHT22;10975;47.872;12.972;2023-02-19T08:36:26;10.70;99.90
21627;DHT22;10975;47.872;12.972;2023-02-19T08:38:53;10.80;99.90
21627;DHT22;10975;47.872;12.972;2023-02-19T08:41:20;10.90;99.90
21627;DHT22;10975;47.872;12.972;2023-02-19T08:43:47;10.90;99.90
21627;DHT22;10975;47.872;12.972;2023-02-19T08:46:13;11.10;99.90
21627;DHT22;10975;47.872;12.972;2023-02-19T08:48:40;11.00;99.90
21627;DHT22;10975;47.872;12.972;2023-02-19T08:51:08;11.00;99.90
21627;DHT22;10975;47.872;12.972;2023-02-19T08:53:36;10.90;99.90
21627;DHT22;10975;47.872;12.972;2023-02-19T08:56:07;11.00;99.90
21627;DHT22;10975;47.872;12.972;2023-02-19T08:58:34;11.00;99.90
21627;DHT22;10975;47.872;12.972;2023-02-19T09:01:01;11.10;99.90
21627;DHT22;10975;47.872;12.972;2023-02-19T09:03:28;11.10;99.90
21627;DHT22;10975;47.872;12.972;2023-02-19T09:05:59;11.40;99.90
21627;DHT22;10975;47.872;12.972;2023-02-19T09:08:26;11.70;99.90
21627;DHT22;10975;47.872;12.972;2023-02-19T09:10:57;11.80;99.90
21627;DHT22;10975;47.872;12.972;2023-02-19T09:13:23;11.90;99.90
21627;DHT22;10975;47.872;12.972;2023-02-19T09:15:50;12.00;99.90
21627;DHT22;10975;47.872;12.972;2023-02-19T09:18:17;12.20;99.90
21627;DHT22;10975;47.872;12.972;2023-02-19T09:20:43;12.20;99.90
21627;DHT22;10975;47.872;12.972;2023-02-19T09:23:10;12.40;99.90
21627;DHT22;10975;47.872;12.972;2023-02-19T09:25:37;12.40;99.90
21627;DHT22;10975;47.872;12.972;2023-02-19T09:28:04;12.30;99.90
21627;DHT22;10975;47.872;12.972;2023-02-19T09:30:30;12.50;99.90
21627;DHT22;10975;47.872;12.972;2023-02-19T09:32:57;12.60;99.90
21627;DHT22;10975;47.872;12.972;2023-02-19T09:35:24;12.40;99.90
21627;DHT22;10975;47.872;12.972;2023-02-19T09:37:50;12.00;99.90
21627;DHT22;10975;47.872;12.972;2023-02-19T09:40:17;12.10;99.90
21627;DHT22;10975;47.872;12.972;2023-02-19T09:42:47;12.20;99.90
21627;DHT22;10975;47.872;12.972;2023-02-19T09:45:18;12.40;99.90
21627;DHT22;10975;47.872;12.972;2023-02-19T09:47:47;12.50;99.90
21627;DHT22;10975;47.872;12.972;2023-02-19T09:50:15;12.20;99.90
21627;DHT22;10975;47.872;12.972;2023-02-19T09:57:35;10.70;99.90
21627;DHT22;10975;47.872;12.972;2023-02-19T10:00:12;10.40;99.90
21627;DHT22;10975;47.872;12.972;2023-02-19T10:02:45;10.20;99.90
21627;DHT22;10975;47.872;12.972;2023-02-19T10:05:12;9.90;99.90
21627;DHT22;10975;47.872;12.972;2023-02-19T10:07:43;9.90;99.90
21627;DHT22;10975;47.872;12.972;2023-02-19T10:12:42;9.90;99.90
21627;DHT22;10975;47.872;12.972;2023-02-19T10:15:14;9.70;99.90
21627;DHT22;10975;47.872;12.972;2023-02-19T10:17:42;9.80;99.90
21627;DHT22;10975;47.872;12.972;2023-02-19T10:20:13;9.80;99.90
21627;DHT22;10975;47.872;12.972;2023-02-19T10:22:40;9.80;99.90
21627;DHT22;10975;47.872;12.972;2023-02-19T10:25:13;9.70;99.90
21627;DHT22;10975;47.872;12.972;2023-02-19T10:27:41;9.60;99.90
21627;DHT22;10975;47.872;12.972;2023-02-19T10:30:16;9.70;99.90
21627;DHT22;10975;47.872;12.972;2023-02-19T10:32:56;9.80;99.90
21627;DHT22;10975;47.872;12.972;2023-02-19T10:35:23;9.90;99.90
21627;DHT22;10975;47.872;12.972;2023-02-19T10:37:50;10.00;99.90
21627;DHT22;10975;47.872;12.972;2023-02-19T10:40:18;9.90;99.90
21627;DHT22;10975;47.872;12.972;2023-02-19T10:42:46;10.10;99.90
21627;DHT22;10975;47.872;12.972;2023-02-19T10:45:33;10.10;99.90
21627;DHT22;10975;47.872;12.972;2023-02-19T10:48:00;9.90;99.90
21627;DHT22;10975;47.872;12.972;2023-02-19T10:50:28;10.10;99.90
21627;DHT22;10975;47.872;12.972;2023-02-19T10:52:57;10.00;99.90
21627;DHT22;10975;47.872;12.972;2023-02-19T10:57:51;9.70;99.90
21627;DHT22;10975;47.872;12.972;2023-02-19T11:00:19;9.70;99.90
21627;DHT22;10975;47.872;12.972;2023-02-19T11:02:48;9.60;99.90
21627;DHT22;10975;47.872;12.972;2023-02-19T11:05:16;9.60;99.90
21627;DHT22;10975;47.872;12.972;2023-02-19T11:07:55;9.60;99.90
21627;DHT22;10975;47.872;12.972;2023-02-19T11:12:56;9.70;99.90
21627;DHT22;10975;47.872;12.972;2023-02-19T11:18:33;9.50;99.90
21627;DHT22;10975;47.872;12.972;2023-02-19T11:20:45;9.60;99.90
21627;DHT22;10975;47.872;12.972;2023-02-19T11:23:14;9.50;99.90
21627;DHT22;10975;47.872;12.972;2023-02-19T11:25:45;9.60;99.90
21627;DHT22;10975;47.872;12.972;2023-02-19T11:30:43;9.70;99.90
21627;DHT22;10975;47.872;12.972;2023-02-19T11:35:45;9.90;99.90
21627;DHT22;10975;47.872;12.972;2023-02-19T11:38:13;10.00;99.90
21627;DHT22;10975;47.872;12.972;2023-02-19T11:43:28;9.90;99.90
21627;DHT22;10975;47.872;12.972;2023-02-19T11:48:31;9.80;99.90
21627;DHT22;10975;47.872;12.972;2023-02-19T11:53:30;10.10;99.90
21627;DHT22;10975;47.872;12.972;2023-02-19T12:01:22;10.40;99.90
21627;DHT22;10975;47.872;12.972;2023-02-19T12:06:36;10.50;99.90
21627;DHT22;10975;47.872;12.972;2023-02-19T12:09:25;10.50;99.90
21627;DHT22;10975;47.872;12.972;2023-02-19T12:17:19;10.70;99.90
21627;DHT22;10975;47.872;12.972;2023-02-19T12:19:58;10.60;99.90
21627;DHT22;10975;47.872;12.972;2023-02-19T12:22:31;10.60;99.90
21627;DHT22;10975;47.872;12.972;2023-02-19T12:25:05;10.70;99.90
21627;DHT22;10975;47.872;12.972;2023-02-19T12:37:43;10.70;99.90
21627;DHT22;10975;47.872;12.972;2023-02-19T12:45:17;10.80;99.90
21627;DHT22;10975;47.872;12.972;2023-02-19T12:48:28;10.70;99.90
21627;DHT22;10975;47.872;12.972;2023-02-19T12:50:35;10.70;99.90
21627;DHT22;10975;47.872;12.972;2023-02-19T12:53:11;10.50;99.90
21627;DHT22;10975;47.872;12.972;2023-02-19T12:55:41;10.50;99.90
21627;DHT22;10975;47.872;12.972;2023-02-19T12:58:10;10.40;99.90
21627;DHT22;10975;47.872;12.972;2023-02-19T13:00:43;10.30;99.90
21627;DHT22;10975;47.872;12.972;2023-02-19T13:05:55;10.00;99.90
21627;DHT22;10975;47.872;12.972;2023-02-19T13:10:55;9.90;99.90
21627;DHT22;10975;47.872;12.972;2023-02-19T13:13:26;10.10;99.90
21627;DHT22;10975;47.872;12.972;2023-02-19T13:15:59;10.10;99.90
21627;DHT22;10975;47.872;12.972;2023-02-19T13:18:30;10.10;99.90
21627;DHT22;10975;47.872;12.972;2023-02-19T13:20:57;10.10;99.90
21627;DHT22;10975;47.872;12.972;2023-02-19T13:23:35;10.00;99.90
21627;DHT22;10975;47.872;12.972;2023-02-19T13:31:34;9.80;99.90
21627;DHT22;10975;47.872;12.972;2023-02-19T13:36:44;9.90;99.90
21627;DHT22;10975;47.872;12.972;2023-02-19T13:39:15;9.90;99.90
21627;DHT22;10975;47.872;12.972;2023-02-19T13:41:50;10.10;99.90
21627;DHT22;10975;47.872;12.972;2023-02-19T13:44:22;10.20;99.90
21627;DHT22;10975;47.872;12.972;2023-02-19T13:46:50;10.20;99.90
21627;DHT22;10975;47.872;12.972;2023-02-19T13:51:50;10.30;99.90
21627;DHT22;10975;47.872;12.972;2023-02-19T13:54:22;10.30;99.90
21627;DHT22;10975;47.872;12.972;2023-02-19T13:56:49;10.40;99.90
21627;DHT22;10975;47.872;12.972;2023-02-19T13:59:23;10.50;99.90
21627;DHT22;10975;47.872;12.972;2023-02-19T14:12:03;10.20;99.90
21627;DHT22;10975;47.872;12.972;2023-02-19T14:16:58;10.10;99.90
21627;DHT22;10975;47.872;12.972;2023-02-19T14:25:00;10.30;99.90
21627;DHT22;10975;47.872;12.972;2023-02-19T14:27:29;10.60;99.90
21627;DHT22;10975;47.872;12.972;2023-02-19T14:29:56;10.60;99.90
21627;DHT22;10975;47.872;12.972;2023-02-19T14:32:23;10.50;99.90
21627;DHT22;10975;47.872;12.972;2023-02-19T14:34:50;10.70;99.90
21627;DHT22;10975;47.872;12.972;2023-02-19T14:37:18;10.80;99.90
21627;DHT22;10975;47.872;12.972;2023-02-19T14:39:46;10.60;99.90
21627;DHT22;10975;47.872;12.972;2023-02-19T14:42:15;10.40;99.90
21627;DHT22;10975;47.872;12.972;2023-02-19T14:44:47;10.30;99.90
21627;DHT22;10975;47.872;12.972;2023-02-19T14:47:15;10.20;99.90
21627;DHT22;10975;47.872;12.972;2023-02-19T14:49:44;10.10;99.90
21627;DHT22;10975;47.872;12.972;2023-02-19T14:52:22;10.10;99.90
21627;DHT22;10975;47.872;12.972;2023-02-19T14:54:54;10.10;99.90
21627;DHT22;10975;47.872;12.972;2023-02-19T14:57:23;10.10;99.90
21627;DHT22;10975;47.872;12.972;2023-02-19T14:59:55;10.10;99.90
21627;DHT22;10975;47.872;12.972;2023-02-19T15:02:24;10.00;99.90
21627;DHT22;10975;47.872;12.972;2023-02-19T15:04:51;10.10;99.90
21627;DHT22;10975;47.872;12.972;2023-02-19T15:07:19;10.10;99.90
21627;DHT22;10975;47.872;12.972;2023-02-19T15:09:48;10.20;99.90
21627;DHT22;10975;47.872;12.972;2023-02-19T15:12:20;10.20;99.90
21627;DHT22;10975;47.872;12.972;2023-02-19T15:14:47;10.10;99.90
21627;DHT22;10975;47.872;12.972;2023-02-19T15:17:16;10.00;99.90
21627;DHT22;10975;47.872;12.972;2023-02-19T15:22:17;9.90;99.90
21627;DHT22;10975;47.872;12.972;2023-02-19T15:24:47;9.90;99.90
21627;DHT22;10975;47.872;12.972;2023-02-19T15:27:15;10.00;99.90
21627;DHT22;10975;47.872;12.972;2023-02-19T15:29:47;10.00;99.90
21627;DHT22;10975;47.872;12.972;2023-02-19T15:32:32;9.90;99.90
21627;DHT22;10975;47.872;12.972;2023-02-19T15:35:01;9.90;99.90
21627;DHT22;10975;47.872;12.972;2023-02-19T15:37:29;9.90;99.90
21627;DHT22;10975;47.872;12.972;2023-02-19T15:39:58;9.90;99.90
21627;DHT22;10975;47.872;12.972;2023-02-19T15:47:42;10.20;99.90
21627;DHT22;10975;47.872;12.972;2023-02-19T15:55:22;9.90;99.90
21627;DHT22;10975;47.872;12.972;2023-02-19T15:58:03;9.80;99.90
21627;DHT22;10975;47.872;12.972;2023-02-19T16:00:38;9.80;99.90
21627;DHT22;10975;47.872;12.972;2023-02-19T16:03:07;9.70;99.90
21627;DHT22;10975;47.872;12.972;2023-02-19T16:05:38;9.60;99.90
21627;DHT22;10975;47.872;12.972;2023-02-19T16:08:14;9.70;99.90
21627;DHT22;10975;47.872;12.972;2023-02-19T16:10:58;9.70;99.90
21627;DHT22;10975;47.872;12.972;2023-02-19T16:13:26;9.70;99.90
21627;DHT22;10975;47.872;12.972;2023-02-19T16:18:26;9.60;99.90
21627;DHT22;10975;47.872;12.972;2023-02-19T16:20:53;9.60;99.90
21627;DHT22;10975;47.872;12.972;2023-02-19T16:23:25;9.60;99.90
21627;DHT22;10975;47.872;12.972;2023-02-19T16:25:56;9.60;99.90
21627;DHT22;10975;47.872;12.972;2023-02-19T16:28:24;9.50;99.90
21627;DHT22;10975;47.872;12.972;2023-02-19T16:30:58;9.50;99.90
21627;DHT22;10975;47.872;12.972;2023-02-19T16:36:14;9.40;99.90
21627;DHT22;10975;47.872;12.972;2023-02-19T16:38:56;9.40;99.90
21627;DHT22;10975;47.872;12.972;2023-02-19T16:41:23;9.40;99.90
21627;DHT22;10975;47.872;12.972;2023-02-19T16:43:50;9.40;99.90
21627;DHT22;10975;47.872;12.972;2023-02-19T16:46:17;9.40;99.90
21627;DHT22;10975;47.872;12.972;2023-02-19T16:48:43;9.40;99.90
21627;DHT22;10975;47.872;12.972;2023-02-19T16:51:13;9.30;99.90
21627;DHT22;10975;47.872;12.972;2023-02-19T16:53:41;9.30;99.90
21627;DHT22;10975;47.872;12.972;2023-02-19T16:56:12;9.30;99.90
21627;DHT22;10975;47.872;12.972;2023-02-19T16:58:42;9.30;99.90
21627;DHT22;10975;47.872;12.972;2023-02-19T17:01:09;9.30;99.90
21627;DHT22;10975;47.872;12.972;2023-02-19T17:03:36;9.30;99.90
21627;DHT22;10975;47.872;12.972;2023-02-19T17:06:03;9.30;99.90
21627;DHT22;10975;47.872;12.972;2023-02-19T17:10:59;9.20;99.90
21627;DHT22;10975;47.872;12.972;2023-02-19T17:13:28;9.10;99.90
21627;DHT22;10975;47.872;12.972;2023-02-19T17:15:56;9.20;99.90
21627;DHT22;10975;47.872;12.972;2023-02-19T17:18:24;9.20;99.90
21627;DHT22;10975;47.872;12.972;2023-02-19T17:21:02;9.10;99.90
21627;DHT22;10975;47.872;12.972;2023-02-19T17:23:30;9.10;99.90
21627;DHT22;10975;47.872;12.972;2023-02-19T17:25:57;9.00;99.90
21627;DHT22;10975;47.872;12.972;2023-02-19T17:28:26;8.90;99.90
21627;DHT22;10975;47.872;12.972;2023-02-19T17:30:52;8.90;99.90
21627;DHT22;10975;47.872;12.972;2023-02-19T17:33:21;9.00;99.90
21627;DHT22;10975;47.872;12.972;2023-02-19T17:35:48;8.90;99.90
21627;DHT22;10975;47.872;12.972;2023-02-19T17:38:33;8.90;99.90
21627;DHT22;10975;47.872;12.972;2023-02-19T17:41:00;8.90;99.90
21627;DHT22;10975;47.872;12.972;2023-02-19T17:43:32;8.90;99.90
21627;DHT22;10975;47.872;12.972;2023-02-19T17:45:59;8.90;99.90
21627;DHT22;10975;47.872;12.972;2023-02-19T17:48:25;8.90;99.90
21627;DHT22;10975;47.872;12.972;2023-02-19T17:50:54;8.90;99.90
21627;DHT22;10975;47.872;12.972;2023-02-19T17:53:21;8.90;99.90
21627;DHT22;10975;47.872;12.972;2023-02-19T17:55:47;8.90;99.90
21627;DHT22;10975;47.872;12.972;2023-02-19T17:58:15;8.80;99.90
21627;DHT22;10975;47.872;12.972;2023-02-19T18:00:42;8.80;99.90